createdAt,value
2022-11-29T00:46:06.646Z,3.69
2022-11-29T04:40:14.176Z,3.99
2022-11-29T06:16:33.424Z,3.83
2022-11-29T06:49:37.873Z,3.80
2022-11-29T06:52:39.129Z,3.83
2022-11-29T06:55:15.971Z,3.81
2022-11-29T06:57:55.626Z,3.78
2022-11-29T07:00:28.685Z,3.79
2022-11-29T07:03:38.031Z,3.83
2022-11-29T07:06:15.325Z,3.81
2022-11-29T07:08:43.374Z,3.86
2022-11-29T07:11:12.220Z,3.82
2022-11-29T07:13:40.140Z,3.81
2022-11-29T07:16:26.413Z,3.79
2022-11-29T07:19:17.350Z,3.83
2022-11-29T07:22:23.343Z,3.90
2022-11-29T07:24:53.388Z,3.89
2022-11-29T07:27:29.661Z,3.84
2022-11-29T07:30:23.801Z,3.80
2022-11-29T07:33:14.185Z,3.82
2022-11-29T07:36:02.374Z,3.88
2022-11-29T07:38:42.088Z,3.85
2022-11-29T07:41:25.327Z,3.84
2022-11-29T07:44:04.699Z,3.88
2022-11-29T07:46:32.574Z,3.96
2022-11-29T07:49:00.086Z,4.01
2022-11-29T07:51:27.712Z,4.01
2022-11-29T07:53:55.185Z,4.01
2022-11-29T07:56:22.714Z,4.02
2022-11-29T07:58:57.125Z,3.98
2022-11-29T08:01:24.590Z,4.02
2022-11-29T08:03:52.135Z,4.04
2022-11-29T08:06:26.470Z,4.07
2022-11-29T08:08:54.185Z,4.12
2022-11-29T08:11:21.672Z,4.09
2022-11-29T08:13:49.103Z,4.09
2022-11-29T08:16:19.596Z,4.15
2022-11-29T08:18:47.225Z,4.18
2022-11-29T08:21:59.254Z,4.20
2022-11-29T08:24:52.202Z,4.19
2022-11-29T08:31:28.117Z,4.24
2022-11-29T08:34:38.472Z,4.25
2022-11-29T08:37:30.760Z,4.28
2022-11-29T08:40:35.913Z,4.34
2022-11-29T08:43:08.764Z,4.39
2022-11-29T08:45:40.730Z,4.43
2022-11-29T08:48:21.729Z,4.45
2022-11-29T08:50:52.536Z,4.46
2022-11-29T08:54:01.623Z,4.50
2022-11-29T08:57:31.012Z,4.47
2022-11-29T08:59:22.620Z,4.48
2022-11-29T09:02:09.478Z,4.45
2022-11-29T09:04:55.586Z,4.50
2022-11-29T09:07:50.355Z,4.56
2022-11-29T09:10:28.751Z,4.53
2022-11-29T09:13:01.050Z,4.50
2022-11-29T09:15:34.120Z,4.48
2022-11-29T09:18:04.470Z,4.53
2022-11-29T09:20:36.711Z,4.58
2022-11-29T09:23:32.414Z,4.61
2022-11-29T09:36:33.303Z,4.88
2022-11-29T09:39:52.441Z,4.90
2022-11-29T09:43:17.019Z,4.93
2022-11-29T09:46:25.492Z,4.86
2022-11-29T09:50:28.912Z,4.93
2022-11-29T09:53:25.993Z,4.93
2022-11-29T09:56:55.625Z,4.97
2022-11-29T10:00:10.274Z,5.05
2022-11-29T10:13:50.803Z,5.05
2022-11-29T10:17:06.197Z,5.09
2022-11-29T10:24:35.554Z,5.02
2022-11-29T10:27:21.541Z,5.11
2022-11-29T10:30:44.190Z,5.07
2022-11-29T10:33:46.212Z,5.13
2022-11-29T10:37:09.692Z,5.15
2022-11-29T10:40:04.576Z,5.16
2022-11-29T10:42:56.624Z,5.16
2022-11-29T10:49:08.502Z,5.23
2022-11-29T10:51:41.913Z,5.24
2022-11-29T10:55:43.046Z,5.23
2022-11-29T10:59:03.700Z,5.29
2022-11-29T11:03:13.113Z,5.26
2022-11-29T11:06:13.897Z,5.20
2022-11-29T11:12:34.277Z,5.25
2022-11-29T11:15:35.392Z,5.29
2022-11-29T11:18:05.845Z,5.27
2022-11-29T11:20:35.858Z,5.31
2022-11-29T11:23:05.638Z,5.33
2022-11-29T11:25:35.842Z,5.30
2022-11-29T11:28:15.258Z,5.29
2022-11-29T11:31:02.294Z,5.27
2022-11-29T11:33:35.234Z,5.15
2022-11-29T11:36:07.513Z,5.18
2022-11-29T11:38:37.138Z,5.24
2022-11-29T11:41:48.148Z,5.23
2022-11-29T11:44:46.887Z,5.27
2022-11-29T11:47:31.547Z,5.29
2022-11-29T11:50:02.269Z,5.31
2022-11-29T11:52:37.081Z,5.30
2022-11-29T11:55:22.479Z,5.21
2022-11-29T11:58:07.824Z,5.20
2022-11-29T12:01:05.852Z,5.18
2022-11-29T12:03:41.712Z,5.22
2022-11-29T12:06:46.587Z,5.27
2022-11-29T12:09:19.206Z,5.30
2022-11-29T12:12:07.917Z,5.31
2022-11-29T12:14:42.762Z,5.36
2022-11-29T12:17:26.891Z,5.41
2022-11-29T12:20:13.952Z,5.45
2022-11-29T12:22:51.031Z,5.50
2022-11-29T12:25:23.479Z,5.52
2022-11-29T12:27:53.986Z,5.52
2022-11-29T12:30:21.337Z,5.51
2022-11-29T12:33:20.622Z,5.43
2022-11-29T12:35:59.837Z,5.45
2022-11-29T12:39:04.535Z,5.45
2022-11-29T12:41:42.027Z,5.37
2022-11-29T12:44:37.127Z,5.41
2022-11-29T12:47:37.136Z,5.46
2022-11-29T12:50:38.970Z,5.45
2022-11-29T12:53:35.136Z,5.49
2022-11-29T12:56:20.900Z,5.49
2022-11-29T12:59:09.758Z,5.42
2022-11-29T13:01:52.077Z,5.40
2022-11-29T13:04:47.415Z,5.46
2022-11-29T13:07:41.870Z,5.41
2022-11-29T13:10:53.527Z,5.43
2022-11-29T13:13:39.066Z,5.34
2022-11-29T13:16:21.319Z,5.33
2022-11-29T13:19:13.451Z,5.31
2022-11-29T13:21:54.871Z,5.31
2022-11-29T13:24:44.721Z,5.31
2022-11-29T13:27:23.543Z,5.36
2022-11-29T13:29:51.220Z,5.38
2022-11-29T13:32:40.111Z,5.40
2022-11-29T13:35:30.408Z,5.38
2022-11-29T13:38:28.455Z,5.43
2022-11-29T13:41:33.606Z,5.44
2022-11-29T13:44:12.898Z,5.40
2022-11-29T13:47:10.058Z,5.30
2022-11-29T13:49:56.040Z,5.30
2022-11-29T13:52:35.279Z,5.23
2022-11-29T13:55:06.553Z,5.25
2022-11-29T13:58:16.380Z,5.28
2022-11-29T14:00:44.336Z,5.36
2022-11-29T14:03:21.863Z,5.36
2022-11-29T14:05:52.107Z,5.36
2022-11-29T14:08:23.415Z,5.33
2022-11-29T14:10:52.421Z,5.34
2022-11-29T14:13:22.625Z,5.40
2022-11-29T14:15:56.688Z,5.38
2022-11-29T14:18:42.124Z,5.46
2022-11-29T14:21:10.011Z,5.44
2022-11-29T14:23:40.611Z,5.46
2022-11-29T14:26:07.973Z,5.44
2022-11-29T14:28:36.107Z,5.40
2022-11-29T14:31:04.629Z,5.43
2022-11-29T14:33:47.315Z,5.42
2022-11-29T14:36:14.832Z,5.42
2022-11-29T14:39:04.853Z,5.32
2022-11-29T14:46:47.740Z,5.35
2022-11-29T14:49:21.812Z,5.32
2022-11-29T14:52:09.393Z,5.37
2022-11-29T14:54:54.655Z,5.37
2022-11-29T14:57:47.020Z,5.40
2022-11-29T15:00:32.645Z,5.39
2022-11-29T15:03:17.702Z,5.33
2022-11-29T16:23:37.659Z,5.20
2022-11-29T16:26:05.045Z,5.17
